createdAt,value
2018-11-02T00:00:15.560Z,0.00
2018-11-02T00:01:15.473Z,0.00
2018-11-02T00:02:15.481Z,0.00
2018-11-02T00:03:15.493Z,0.00
2018-11-02T00:04:15.504Z,0.00
2018-11-02T00:05:15.512Z,0.00
2018-11-02T00:06:15.573Z,0.00
2018-11-02T00:07:15.534Z,0.00
2018-11-02T00:08:15.543Z,0.00
2018-11-02T00:09:15.555Z,0.00
2018-11-02T00:10:15.562Z,0.00
2018-11-02T00:11:15.618Z,0.00
2018-11-02T00:12:15.654Z,0.00
2018-11-02T00:13:15.595Z,0.00
2018-11-02T00:14:15.601Z,0.00
2018-11-02T00:15:15.616Z,0.00
2018-11-02T00:16:15.625Z,0.00
2018-11-02T00:17:15.632Z,0.00
2018-11-02T00:18:15.641Z,0.00
2018-11-02T00:19:15.652Z,0.00
2018-11-02T00:20:15.663Z,0.00
2018-11-02T00:21:15.671Z,0.00
2018-11-02T00:22:15.681Z,0.00
2018-11-02T00:23:15.692Z,0.00
2018-11-02T00:24:15.703Z,0.00
2018-11-02T00:25:15.781Z,0.00
2018-11-02T00:26:15.725Z,0.00
2018-11-02T00:27:15.732Z,0.00
2018-11-02T00:28:15.749Z,0.00
2018-11-02T00:29:15.753Z,0.00
2018-11-02T00:30:15.764Z,0.00
2018-11-02T00:31:15.772Z,0.00
2018-11-02T00:32:15.782Z,0.00
2018-11-02T00:33:15.790Z,0.00
2018-11-02T00:34:15.801Z,0.00
2018-11-02T00:35:15.810Z,0.00
2018-11-02T00:36:15.819Z,0.00
2018-11-02T00:37:15.832Z,0.00
2018-11-02T00:38:15.842Z,0.00
2018-11-02T00:39:15.850Z,0.00
2018-11-02T00:40:15.860Z,0.00
2018-11-02T00:41:15.872Z,0.00
2018-11-02T00:42:15.878Z,0.00
2018-11-02T00:43:15.891Z,0.00
2018-11-02T00:44:15.902Z,0.00
2018-11-02T00:45:15.934Z,0.00
2018-11-02T00:46:15.961Z,0.00
2018-11-02T00:47:15.929Z,0.00
2018-11-02T00:48:16.020Z,0.00
2018-11-02T00:49:15.947Z,0.00
2018-11-02T00:50:15.961Z,0.00
2018-11-02T00:51:15.969Z,0.00
2018-11-02T00:52:15.976Z,0.00
2018-11-02T00:53:16.373Z,0.00
2018-11-02T00:54:15.997Z,0.00
2018-11-02T00:55:16.005Z,0.00
2018-11-02T00:56:16.017Z,0.00
2018-11-02T00:57:16.027Z,0.00
2018-11-02T00:58:16.033Z,0.00
2018-11-02T00:59:16.045Z,0.00
2018-11-02T01:00:16.054Z,0.00
2018-11-02T01:01:16.063Z,0.00
2018-11-02T01:02:16.074Z,0.00
2018-11-02T01:03:16.082Z,0.00
2018-11-02T01:04:16.092Z,0.00
2018-11-02T01:05:16.104Z,0.00
2018-11-02T01:06:16.112Z,0.00
2018-11-02T01:07:16.119Z,0.00
2018-11-02T01:08:16.130Z,0.00
2018-11-02T01:09:16.139Z,0.00
2018-11-02T01:10:16.148Z,0.00
2018-11-02T01:11:16.162Z,0.00
2018-11-02T01:12:16.168Z,0.00
2018-11-02T01:13:16.178Z,0.00
2018-11-02T01:14:16.186Z,0.00
2018-11-02T01:15:16.196Z,0.00
2018-11-02T01:16:16.220Z,0.00
2018-11-02T01:17:16.240Z,0.00
2018-11-02T01:18:16.227Z,0.00
2018-11-02T01:19:16.234Z,0.00
2018-11-02T01:20:16.244Z,0.00
2018-11-02T01:21:16.258Z,0.00
2018-11-02T01:22:16.263Z,0.00
2018-11-02T01:23:16.274Z,0.00
2018-11-02T01:24:16.283Z,0.00
2018-11-02T01:25:16.297Z,0.00
2018-11-02T01:26:16.310Z,0.00
2018-11-02T01:27:16.317Z,0.00
2018-11-02T01:28:16.321Z,0.00
2018-11-02T01:29:16.334Z,0.00
2018-11-02T01:30:16.342Z,0.00
2018-11-02T01:31:16.356Z,0.00
2018-11-02T01:32:16.365Z,0.00
2018-11-02T01:33:16.372Z,0.00
2018-11-02T01:34:16.411Z,0.00
2018-11-02T01:35:16.392Z,0.00
2018-11-02T01:36:16.402Z,0.00
2018-11-02T01:37:16.411Z,0.00
2018-11-02T01:38:16.418Z,0.00
2018-11-02T01:39:16.429Z,0.00
2018-11-02T01:40:16.440Z,0.00
2018-11-02T01:41:16.449Z,0.00
2018-11-02T01:42:16.470Z,0.00
2018-11-02T01:43:16.468Z,0.00
2018-11-02T01:44:16.477Z,0.00
2018-11-02T01:45:16.491Z,0.00
2018-11-02T01:46:16.498Z,0.00
2018-11-02T01:47:16.505Z,0.00
2018-11-02T01:48:16.516Z,0.00
2018-11-02T01:49:16.526Z,0.00
2018-11-02T01:50:16.535Z,0.00
2018-11-02T01:51:16.543Z,0.00
2018-11-02T01:52:16.555Z,0.00
2018-11-02T01:53:16.564Z,0.00
2018-11-02T01:54:16.572Z,0.00
2018-11-02T01:55:16.591Z,0.00
2018-11-02T01:56:16.593Z,0.00
2018-11-02T01:57:16.604Z,0.00
2018-11-02T01:58:16.612Z,0.00
2018-11-02T01:59:16.628Z,0.00
2018-11-02T02:00:16.632Z,0.00
2018-11-02T02:01:16.641Z,0.00
2018-11-02T02:02:16.652Z,0.00
2018-11-02T02:03:16.660Z,0.00
2018-11-02T02:04:16.669Z,0.00
2018-11-02T02:05:16.681Z,0.00
2018-11-02T02:06:16.688Z,0.00
2018-11-02T02:07:16.700Z,0.00
2018-11-02T02:08:16.708Z,0.00
2018-11-02T02:09:16.719Z,0.00
2018-11-02T02:10:16.726Z,0.00
2018-11-02T02:11:16.740Z,0.00
2018-11-02T02:12:16.747Z,0.00
2018-11-02T02:13:16.866Z,0.00
2018-11-02T02:14:16.767Z,0.00
2018-11-02T02:15:16.778Z,0.00
2018-11-02T02:16:16.784Z,0.00
2018-11-02T02:17:16.797Z,0.00
2018-11-02T02:18:16.804Z,0.00
2018-11-02T02:19:16.826Z,0.00
2018-11-02T02:20:16.820Z,0.00
2018-11-02T02:21:16.832Z,0.00
2018-11-02T02:22:16.841Z,0.00
2018-11-02T02:23:16.850Z,0.00
2018-11-02T02:24:16.860Z,0.00
2018-11-02T02:25:16.869Z,0.00
2018-11-02T02:26:16.879Z,0.00
2018-11-02T02:27:16.889Z,0.00
2018-11-02T02:28:16.898Z,0.00
2018-11-02T02:29:16.909Z,0.00
2018-11-02T02:30:16.918Z,0.00
2018-11-02T02:31:16.931Z,0.00
2018-11-02T02:32:16.935Z,0.00
2018-11-02T02:33:16.948Z,0.00
2018-11-02T02:34:16.960Z,0.00
2018-11-02T02:35:16.965Z,0.00
2018-11-02T02:36:16.970Z,0.00
2018-11-02T02:37:16.983Z,0.00
2018-11-02T02:38:16.990Z,0.00
2018-11-02T02:39:17.004Z,0.00
2018-11-02T02:40:17.009Z,0.00
2018-11-02T02:41:17.021Z,0.00
2018-11-02T02:42:17.028Z,0.00
2018-11-02T02:43:17.041Z,0.00
2018-11-02T02:44:17.045Z,0.00
2018-11-02T02:45:17.056Z,0.00
2018-11-02T02:46:17.065Z,0.00
2018-11-02T02:47:17.074Z,0.00
2018-11-02T02:48:17.084Z,0.00
2018-11-02T02:49:17.147Z,0.00
2018-11-02T02:50:17.102Z,0.00
2018-11-02T02:51:17.112Z,0.00
2018-11-02T02:52:17.121Z,0.00
2018-11-02T02:53:17.131Z,0.00
2018-11-02T02:54:17.142Z,0.00
2018-11-02T02:55:17.150Z,0.00
2018-11-02T02:56:17.160Z,0.00
2018-11-02T02:57:17.168Z,0.00
2018-11-02T02:58:17.177Z,0.00
2018-11-02T02:59:17.187Z,0.00
2018-11-02T03:00:17.199Z,0.00
2018-11-02T03:01:17.209Z,0.00
2018-11-02T03:02:17.217Z,0.00
2018-11-02T03:03:17.228Z,0.00
2018-11-02T03:04:17.234Z,0.00
2018-11-02T03:05:17.246Z,0.00
2018-11-02T03:06:17.252Z,0.00
2018-11-02T03:07:17.262Z,0.00
2018-11-02T03:08:17.272Z,0.00
2018-11-02T03:09:17.283Z,0.00
2018-11-02T03:10:17.330Z,0.00
2018-11-02T03:11:17.417Z,0.00
2018-11-02T03:12:17.319Z,0.00
2018-11-02T03:13:17.320Z,0.00
2018-11-02T03:14:17.329Z,0.00
2018-11-02T03:15:17.337Z,0.00
2018-11-02T03:16:17.353Z,0.00
2018-11-02T03:17:17.361Z,0.00
2018-11-02T03:18:17.366Z,0.00
2018-11-02T03:19:17.375Z,0.00
2018-11-02T03:20:17.386Z,0.00
2018-11-02T03:21:17.459Z,0.00
2018-11-02T03:22:17.462Z,0.00
2018-11-02T03:23:17.415Z,0.00
2018-11-02T03:24:17.426Z,0.00
2018-11-02T03:25:17.434Z,0.00
2018-11-02T03:26:17.443Z,0.00
2018-11-02T03:27:17.459Z,0.00
2018-11-02T03:28:17.465Z,0.00
2018-11-02T03:29:17.471Z,0.00
2018-11-02T03:30:17.489Z,0.00
2018-11-02T03:31:17.493Z,0.00
2018-11-02T03:32:17.505Z,0.00
2018-11-02T03:33:17.510Z,0.00
2018-11-02T03:34:17.519Z,0.00
2018-11-02T03:35:17.535Z,0.00
2018-11-02T03:36:17.537Z,0.00
2018-11-02T03:37:17.612Z,0.00
2018-11-02T03:38:17.557Z,0.00
2018-11-02T03:39:17.567Z,0.00
2018-11-02T03:40:17.575Z,0.00
2018-11-02T03:41:17.589Z,0.00
2018-11-02T03:42:17.595Z,0.00
2018-11-02T03:43:17.605Z,0.00
2018-11-02T03:44:17.613Z,0.00
2018-11-02T03:45:17.625Z,0.00
2018-11-02T03:46:17.632Z,0.00
2018-11-02T03:47:17.646Z,0.00
2018-11-02T03:48:17.652Z,0.00
2018-11-02T03:49:17.663Z,0.00
2018-11-02T03:50:17.672Z,0.00
2018-11-02T03:51:17.681Z,0.00
2018-11-02T03:52:17.689Z,0.00
2018-11-02T03:53:17.698Z,0.00
2018-11-02T03:54:17.709Z,0.00
2018-11-02T03:55:17.732Z,0.00
2018-11-02T03:56:17.794Z,0.00
2018-11-02T03:57:17.740Z,0.00
2018-11-02T03:58:17.748Z,0.00
2018-11-02T03:59:17.759Z,0.00
2018-11-02T04:00:17.768Z,0.00
2018-11-02T04:01:17.777Z,0.00
2018-11-02T04:02:17.786Z,0.00
2018-11-02T04:03:17.795Z,0.00
2018-11-02T04:04:17.804Z,0.00
2018-11-02T04:05:17.817Z,0.00
2018-11-02T04:06:17.827Z,0.00
2018-11-02T04:07:17.835Z,0.00
2018-11-02T04:08:17.844Z,0.00
2018-11-02T04:09:17.871Z,0.00
2018-11-02T04:10:17.864Z,0.00
2018-11-02T04:11:17.881Z,0.00
2018-11-02T04:12:17.884Z,0.00
2018-11-02T04:13:17.899Z,0.00
2018-11-02T04:14:17.905Z,0.00
2018-11-02T04:15:17.916Z,0.00
2018-11-02T04:16:17.925Z,0.00
2018-11-02T04:17:17.949Z,0.00
2018-11-02T04:18:17.942Z,0.00
2018-11-02T04:19:17.952Z,0.00
2018-11-02T04:20:17.961Z,0.00
2018-11-02T04:21:17.972Z,0.00
2018-11-02T04:22:17.980Z,0.00
2018-11-02T04:23:17.993Z,0.00
2018-11-02T04:24:18.000Z,0.00
2018-11-02T04:25:18.009Z,0.00
2018-11-02T04:26:18.023Z,0.00
2018-11-02T04:27:18.030Z,0.00
2018-11-02T04:28:18.038Z,0.00
2018-11-02T04:29:18.050Z,0.00
2018-11-02T04:30:18.058Z,0.00
2018-11-02T04:31:18.068Z,0.00
2018-11-02T04:32:18.084Z,0.00
2018-11-02T04:33:18.089Z,0.00
2018-11-02T04:34:18.096Z,0.00
2018-11-02T04:35:18.106Z,0.00
2018-11-02T04:36:18.117Z,0.00
2018-11-02T04:37:18.131Z,0.00
2018-11-02T04:38:18.135Z,0.00
2018-11-02T04:39:18.148Z,0.00
2018-11-02T04:40:18.158Z,0.00
2018-11-02T04:41:18.167Z,0.00
2018-11-02T04:42:18.227Z,0.00
2018-11-02T04:43:18.184Z,0.00
2018-11-02T04:44:18.193Z,0.00
2018-11-02T04:45:18.204Z,0.00
2018-11-02T04:46:18.214Z,0.00
2018-11-02T04:47:18.226Z,0.00
2018-11-02T04:48:18.234Z,0.00
2018-11-02T04:49:18.241Z,0.00
2018-11-02T04:50:18.252Z,0.00
2018-11-02T04:51:18.263Z,0.00
2018-11-02T04:52:18.273Z,0.00
2018-11-02T04:53:18.282Z,0.00
2018-11-02T04:54:18.295Z,0.00
2018-11-02T04:55:18.303Z,0.00
2018-11-02T04:56:18.310Z,0.00
2018-11-02T04:57:18.321Z,0.00
2018-11-02T04:58:18.329Z,0.00
2018-11-02T04:59:18.338Z,0.00
2018-11-02T05:00:18.348Z,0.00
2018-11-02T05:01:18.360Z,0.00
2018-11-02T05:02:18.367Z,0.00
2018-11-02T05:03:18.377Z,0.00
2018-11-02T05:04:18.388Z,0.00
2018-11-02T05:05:18.398Z,0.00
2018-11-02T05:06:18.405Z,0.00
2018-11-02T05:07:18.415Z,0.00
2018-11-02T05:08:18.426Z,0.00
2018-11-02T05:09:18.436Z,0.00
2018-11-02T05:10:18.444Z,0.00
2018-11-02T05:11:18.513Z,0.00
2018-11-02T05:12:18.495Z,0.00
2018-11-02T05:13:18.475Z,0.00
2018-11-02T05:14:18.485Z,0.00
2018-11-02T05:15:18.493Z,0.00
2018-11-02T05:16:18.504Z,0.00
2018-11-02T05:17:18.512Z,0.00
2018-11-02T05:18:18.521Z,0.00
2018-11-02T05:19:18.533Z,0.00
2018-11-02T05:20:18.543Z,0.00
2018-11-02T05:21:18.570Z,0.00
2018-11-02T05:22:18.581Z,0.00
2018-11-02T05:23:18.572Z,0.00
2018-11-02T05:24:18.591Z,0.00
2018-11-02T05:25:18.591Z,0.00
2018-11-02T05:26:18.601Z,0.00
2018-11-02T05:27:18.611Z,0.00
2018-11-02T05:28:18.621Z,0.00
2018-11-02T05:29:18.631Z,0.00
2018-11-02T05:30:18.640Z,0.00
2018-11-02T05:31:18.648Z,0.00
2018-11-02T05:32:18.659Z,0.00
2018-11-02T05:33:18.669Z,0.00
2018-11-02T05:34:18.678Z,0.00
2018-11-02T05:35:18.687Z,0.00
2018-11-02T05:36:18.698Z,0.00
2018-11-02T05:37:18.710Z,0.00
2018-11-02T05:38:18.717Z,0.00
2018-11-02T05:39:18.735Z,0.00
2018-11-02T05:40:18.736Z,0.00
2018-11-02T05:41:18.747Z,0.00
2018-11-02T05:42:18.770Z,0.00
2018-11-02T05:43:18.767Z,0.00
2018-11-02T05:44:18.790Z,0.00
2018-11-02T05:45:18.787Z,0.00
2018-11-02T05:46:18.795Z,0.00
2018-11-02T05:47:18.870Z,0.00
2018-11-02T05:48:18.816Z,0.00
2018-11-02T05:49:18.825Z,0.00
2018-11-02T05:50:18.836Z,0.00
2018-11-02T05:51:18.851Z,0.00
2018-11-02T05:52:18.855Z,0.00
2018-11-02T05:53:18.897Z,0.00
2018-11-02T05:54:18.985Z,0.00
2018-11-02T05:55:18.886Z,0.00
2018-11-02T05:56:18.900Z,0.00
2018-11-02T05:57:18.907Z,4.00
2018-11-02T05:58:18.932Z,0.00
2018-11-02T05:59:18.924Z,0.00
2018-11-02T06:00:18.937Z,0.00
2018-11-02T06:01:18.992Z,4.00
2018-11-02T06:02:18.952Z,0.00
2018-11-02T06:03:18.981Z,0.00
2018-11-02T06:04:18.971Z,4.00
2018-11-02T06:05:18.982Z,0.00
2018-11-02T06:06:18.991Z,4.00
2018-11-02T06:07:19.001Z,0.00
2018-11-02T06:08:19.011Z,4.00
2018-11-02T06:09:19.025Z,4.00
2018-11-02T06:10:19.029Z,0.00
2018-11-02T06:11:19.040Z,4.00
2018-11-02T06:12:19.054Z,4.00
2018-11-02T06:13:19.060Z,4.00
2018-11-02T06:14:19.068Z,4.00
2018-11-02T06:15:19.078Z,4.00
2018-11-02T06:16:19.090Z,8.00
2018-11-02T06:17:19.101Z,4.00
2018-11-02T06:18:19.107Z,8.00
2018-11-02T06:19:19.115Z,8.00
2018-11-02T06:20:19.128Z,8.00
2018-11-02T06:21:19.138Z,8.00
2018-11-02T06:22:19.177Z,12.00
2018-11-02T06:23:19.155Z,12.00
2018-11-02T06:24:19.213Z,12.00
2018-11-02T06:25:19.177Z,12.00
2018-11-02T06:26:19.185Z,12.00
2018-11-02T06:27:19.202Z,12.00
2018-11-02T06:28:19.204Z,12.00
2018-11-02T06:29:19.214Z,12.00
2018-11-02T06:30:19.223Z,12.00
2018-11-02T06:31:19.234Z,12.00
2018-11-02T06:32:19.241Z,16.00
2018-11-02T06:33:19.257Z,16.00
2018-11-02T06:34:19.263Z,20.00
2018-11-02T06:35:19.276Z,16.00
2018-11-02T06:36:19.286Z,20.00
2018-11-02T06:37:19.290Z,20.00
2018-11-02T06:38:19.300Z,20.00
2018-11-02T06:39:19.310Z,24.00
2018-11-02T06:40:19.318Z,24.00
2018-11-02T06:41:19.330Z,28.00
2018-11-02T06:42:19.342Z,28.00
2018-11-02T06:43:19.351Z,28.00
2018-11-02T06:44:19.363Z,28.00
2018-11-02T06:45:19.435Z,32.00
2018-11-02T06:46:19.397Z,28.00
2018-11-02T06:47:19.387Z,36.00
2018-11-02T06:48:19.397Z,32.00
2018-11-02T06:49:19.408Z,40.00
2018-11-02T06:50:19.417Z,40.00
2018-11-02T06:51:19.427Z,40.00
2018-11-02T06:52:19.437Z,44.00
2018-11-02T06:53:19.448Z,44.00
2018-11-02T06:54:19.454Z,48.00
2018-11-02T06:55:19.464Z,48.00
2018-11-02T06:56:19.474Z,52.00
2018-11-02T06:57:19.483Z,56.00
2018-11-02T06:58:19.494Z,56.00
2018-11-02T06:59:19.574Z,60.00
2018-11-02T07:00:19.570Z,60.00
2018-11-02T07:01:19.531Z,64.00
2018-11-02T07:02:19.533Z,68.00
2018-11-02T07:03:19.543Z,68.00
2018-11-02T07:04:19.552Z,72.00
2018-11-02T07:05:19.562Z,76.00
2018-11-02T07:06:19.571Z,80.00
2018-11-02T07:07:19.655Z,80.00
2018-11-02T07:08:19.680Z,84.00
2018-11-02T07:09:19.602Z,88.00
2018-11-02T07:10:19.642Z,88.00
2018-11-02T07:11:19.620Z,88.00
2018-11-02T07:12:19.630Z,84.00
2018-11-02T07:13:19.640Z,88.00
2018-11-02T07:14:19.650Z,88.00
2018-11-02T07:15:19.687Z,88.00
2018-11-02T07:16:19.668Z,92.00
2018-11-02T07:17:19.679Z,92.00
2018-11-02T07:18:19.690Z,92.00
2018-11-02T07:19:19.700Z,96.00
2018-11-02T07:20:19.707Z,96.00
2018-11-02T07:21:19.719Z,92.00
2018-11-02T07:22:19.724Z,96.00
2018-11-02T07:23:19.739Z,100.00
2018-11-02T07:24:19.746Z,100.00
2018-11-02T07:25:19.887Z,100.00
2018-11-02T07:26:19.768Z,104.00
2018-11-02T07:27:19.775Z,108.00
2018-11-02T07:28:19.786Z,104.00
2018-11-02T07:29:19.794Z,104.00
2018-11-02T07:30:19.802Z,108.00
2018-11-02T07:31:19.813Z,112.00
2018-11-02T07:32:19.823Z,108.00
2018-11-02T07:33:19.836Z,116.00
2018-11-02T07:34:19.848Z,116.00
2018-11-02T07:35:19.880Z,116.00
2018-11-02T07:36:19.864Z,120.00
2018-11-02T07:37:19.872Z,124.00
2018-11-02T07:38:19.884Z,124.00
2018-11-02T07:39:19.895Z,128.00
2018-11-02T07:40:19.909Z,124.00
2018-11-02T07:41:19.918Z,128.00
2018-11-02T07:42:19.927Z,128.00
2018-11-02T07:43:19.935Z,128.00
2018-11-02T07:44:19.943Z,128.00
2018-11-02T07:45:19.954Z,132.00
2018-11-02T07:46:19.966Z,132.00
2018-11-02T07:47:20.005Z,132.00
2018-11-02T07:48:19.985Z,140.00
2018-11-02T07:49:20.019Z,148.00
2018-11-02T07:50:20.003Z,156.00
2018-11-02T07:51:20.016Z,176.00
2018-11-02T07:52:20.045Z,172.00
2018-11-02T07:53:20.069Z,184.00
2018-11-02T07:54:20.042Z,184.00
2018-11-02T07:55:20.053Z,188.00
2018-11-02T07:56:20.065Z,188.00
2018-11-02T07:57:20.073Z,188.00
2018-11-02T07:58:20.081Z,192.00
2018-11-02T07:59:20.092Z,192.00
2018-11-02T08:00:20.105Z,196.00
2018-11-02T08:01:20.118Z,200.00
2018-11-02T08:02:20.121Z,204.00
2018-11-02T08:03:20.165Z,212.00
2018-11-02T08:04:20.145Z,216.00
2018-11-02T08:05:20.152Z,220.00
2018-11-02T08:06:20.161Z,220.00
2018-11-02T08:07:20.172Z,220.00
2018-11-02T08:08:20.183Z,224.00
2018-11-02T08:09:20.192Z,228.00
2018-11-02T08:10:20.205Z,216.00
2018-11-02T08:11:20.262Z,220.00
2018-11-02T08:12:20.224Z,208.00
2018-11-02T08:13:20.233Z,208.00
2018-11-02T08:14:20.244Z,208.00
2018-11-02T08:15:20.252Z,200.00
2018-11-02T08:16:20.267Z,200.00
2018-11-02T08:17:20.273Z,240.00
2018-11-02T08:18:20.284Z,204.00
2018-11-02T08:19:20.292Z,204.00
2018-11-02T08:20:20.304Z,216.00
2018-11-02T08:21:20.318Z,216.00
2018-11-02T08:22:20.322Z,212.00
2018-11-02T08:23:20.334Z,220.00
2018-11-02T08:24:20.430Z,256.00
2018-11-02T08:25:20.355Z,292.00
2018-11-02T08:26:20.363Z,232.00
2018-11-02T08:27:20.372Z,280.00
2018-11-02T08:28:20.384Z,276.00
2018-11-02T08:29:20.391Z,264.00
2018-11-02T08:30:20.400Z,256.00
2018-11-02T08:31:20.466Z,276.00
2018-11-02T08:32:20.422Z,288.00
2018-11-02T08:33:20.432Z,300.00
2018-11-02T08:34:20.444Z,332.00
2018-11-02T08:35:20.451Z,356.00
2018-11-02T08:36:20.461Z,372.00
2018-11-02T08:37:20.472Z,380.00
2018-11-02T08:38:20.482Z,388.00
2018-11-02T08:39:20.493Z,404.00
2018-11-02T08:40:20.500Z,396.00
2018-11-02T08:41:20.515Z,380.00
2018-11-02T08:42:20.533Z,376.00
2018-11-02T08:43:20.534Z,384.00
2018-11-02T08:44:20.543Z,400.00
2018-11-02T08:45:20.553Z,388.00
2018-11-02T08:46:20.611Z,368.00
2018-11-02T08:47:20.571Z,356.00
2018-11-02T08:48:20.585Z,348.00
2018-11-02T08:49:20.595Z,336.00
2018-11-02T08:50:20.603Z,340.00
2018-11-02T08:51:20.613Z,344.00
2018-11-02T08:52:20.738Z,328.00
2018-11-02T08:53:20.633Z,312.00
2018-11-02T08:54:20.644Z,324.00
2018-11-02T08:55:20.652Z,340.00
2018-11-02T08:56:20.662Z,352.00
2018-11-02T08:57:20.671Z,368.00
2018-11-02T08:58:20.849Z,392.00
2018-11-02T08:59:20.804Z,388.00
2018-11-02T09:00:20.925Z,420.00
2018-11-02T09:01:20.714Z,428.00
2018-11-02T09:02:20.722Z,464.00
2018-11-02T09:03:20.733Z,472.00
2018-11-02T09:04:20.745Z,472.00
2018-11-02T09:05:20.752Z,500.00
2018-11-02T09:06:20.769Z,464.00
2018-11-02T09:07:20.775Z,376.00
2018-11-02T09:08:20.785Z,540.00
2018-11-02T09:09:20.796Z,540.00
2018-11-02T09:10:20.804Z,560.00
2018-11-02T09:11:20.815Z,588.00
2018-11-02T09:12:20.831Z,452.00
2018-11-02T09:13:20.836Z,608.00
2018-11-02T09:14:20.850Z,608.00
2018-11-02T09:15:20.857Z,640.00
2018-11-02T09:16:20.867Z,660.00
2018-11-02T09:17:20.876Z,468.00
2018-11-02T09:18:20.945Z,540.00
2018-11-02T09:19:20.919Z,400.00
2018-11-02T09:20:20.911Z,692.00
2018-11-02T09:21:20.923Z,508.00
2018-11-02T09:22:20.930Z,364.00
2018-11-02T09:23:20.940Z,356.00
2018-11-02T09:24:20.965Z,416.00
2018-11-02T09:25:20.963Z,456.00
2018-11-02T09:26:20.974Z,408.00
2018-11-02T09:27:21.058Z,368.00
2018-11-02T09:28:20.995Z,456.00
2018-11-02T09:29:21.005Z,376.00
2018-11-02T09:30:21.018Z,564.00
2018-11-02T09:31:21.027Z,392.00
2018-11-02T09:32:21.038Z,364.00
2018-11-02T09:33:21.053Z,376.00
2018-11-02T09:34:21.058Z,636.00
2018-11-02T09:35:21.073Z,464.00
2018-11-02T09:36:21.081Z,580.00
2018-11-02T09:37:21.109Z,588.00
2018-11-02T09:38:21.101Z,512.00
2018-11-02T09:39:21.113Z,504.00
2018-11-02T09:40:21.180Z,412.00
2018-11-02T09:41:21.136Z,384.00
2018-11-02T09:42:21.152Z,312.00
2018-11-02T09:43:21.155Z,292.00
2018-11-02T09:44:21.164Z,312.00
2018-11-02T09:45:21.175Z,304.00
2018-11-02T09:46:21.186Z,312.00
2018-11-02T09:47:21.197Z,328.00
2018-11-02T09:48:21.207Z,312.00
2018-11-02T09:49:21.218Z,296.00
2018-11-02T09:50:21.228Z,316.00
2018-11-02T09:51:21.310Z,324.00
2018-11-02T09:52:21.248Z,352.00
2018-11-02T09:53:21.260Z,404.00
2018-11-02T09:54:21.270Z,436.00
2018-11-02T09:55:21.283Z,448.00
2018-11-02T09:56:21.292Z,448.00
2018-11-02T09:57:21.302Z,448.00
2018-11-02T09:58:21.311Z,428.00
2018-11-02T09:59:21.324Z,388.00
2018-11-02T10:00:21.335Z,336.00
2018-11-02T10:01:21.353Z,332.00
2018-11-02T10:02:21.358Z,348.00
2018-11-02T10:03:21.367Z,328.00
2018-11-02T10:04:21.376Z,320.00
2018-11-02T10:05:21.387Z,344.00
2018-11-02T10:06:21.399Z,324.00
2018-11-02T10:07:21.409Z,328.00
2018-11-02T10:08:21.468Z,300.00
2018-11-02T10:09:21.471Z,280.00
2018-11-02T10:10:21.441Z,296.00
2018-11-02T10:11:21.453Z,348.00
2018-11-02T10:12:21.485Z,432.00
2018-11-02T10:13:21.473Z,476.00
2018-11-02T10:14:21.488Z,468.00
2018-11-02T10:15:21.495Z,384.00
2018-11-02T10:16:21.506Z,400.00
2018-11-02T10:17:21.516Z,468.00
2018-11-02T10:18:21.530Z,412.00
2018-11-02T10:19:21.541Z,376.00
2018-11-02T10:20:21.548Z,368.00
2018-11-02T10:21:21.559Z,368.00
2018-11-02T10:22:21.569Z,356.00
2018-11-02T10:23:21.580Z,348.00
2018-11-02T10:24:21.600Z,308.00
2018-11-02T10:25:21.604Z,320.00
2018-11-02T10:26:21.615Z,336.00
2018-11-02T10:27:21.623Z,372.00
2018-11-02T10:28:21.793Z,460.00
2018-11-02T10:29:21.648Z,460.00
2018-11-02T10:30:21.666Z,368.00
2018-11-02T10:31:21.668Z,456.00
2018-11-02T10:32:21.700Z,404.00
2018-11-02T10:33:21.690Z,408.00
2018-11-02T10:34:21.704Z,392.00
2018-11-02T10:35:21.727Z,368.00
2018-11-02T10:36:21.720Z,340.00
2018-11-02T10:37:21.731Z,312.00
2018-11-02T10:38:21.744Z,308.00
2018-11-02T10:39:21.851Z,340.00
2018-11-02T10:40:21.762Z,356.00
2018-11-02T10:41:21.776Z,384.00
2018-11-02T10:42:21.786Z,368.00
2018-11-02T10:43:21.795Z,352.00
2018-11-02T10:44:21.872Z,352.00
2018-11-02T10:45:21.823Z,344.00
2018-11-02T10:46:21.829Z,344.00
2018-11-02T10:47:21.838Z,340.00
2018-11-02T10:48:21.855Z,344.00
2018-11-02T10:49:21.947Z,348.00
2018-11-02T10:50:21.872Z,356.00
2018-11-02T10:51:21.890Z,364.00
2018-11-02T10:52:21.897Z,368.00
2018-11-02T10:53:21.908Z,376.00
2018-11-02T10:54:21.950Z,380.00
2018-11-02T10:55:21.927Z,400.00
2018-11-02T10:56:21.978Z,400.00
2018-11-02T10:57:21.950Z,404.00
2018-11-02T10:58:21.960Z,404.00
2018-11-02T10:59:21.972Z,400.00
2018-11-02T11:00:21.981Z,388.00
2018-11-02T11:01:22.039Z,404.00
2018-11-02T11:02:22.002Z,380.00
2018-11-02T11:03:22.013Z,404.00
2018-11-02T11:04:22.023Z,436.00
2018-11-02T11:05:22.117Z,436.00
2018-11-02T11:06:22.046Z,440.00
2018-11-02T11:07:22.058Z,416.00
2018-11-02T11:08:22.069Z,456.00
2018-11-02T11:09:22.081Z,444.00
2018-11-02T11:10:22.089Z,456.00
2018-11-02T11:11:22.110Z,440.00
2018-11-02T11:12:22.258Z,404.00
2018-11-02T11:13:22.546Z,376.00
2018-11-02T11:14:22.132Z,372.00
2018-11-02T11:15:22.145Z,364.00
2018-11-02T11:16:22.157Z,340.00
2018-11-02T11:17:22.168Z,292.00
2018-11-02T11:18:22.176Z,352.00
2018-11-02T11:19:22.190Z,352.00
2018-11-02T11:20:22.199Z,344.00
2018-11-02T11:21:22.248Z,324.00
2018-11-02T11:22:22.224Z,296.00
2018-11-02T11:23:22.238Z,268.00
2018-11-02T11:24:22.245Z,244.00
2018-11-02T11:25:22.259Z,240.00
2018-11-02T11:26:22.265Z,240.00
2018-11-02T11:27:22.295Z,240.00
2018-11-02T11:28:22.287Z,224.00
2018-11-02T11:29:22.429Z,204.00
2018-11-02T11:30:22.313Z,204.00
2018-11-02T11:31:22.325Z,168.00
2018-11-02T11:32:22.349Z,176.00
2018-11-02T11:33:22.342Z,176.00
2018-11-02T11:34:22.354Z,176.00
2018-11-02T11:35:22.363Z,164.00
2018-11-02T11:36:22.373Z,168.00
2018-11-02T11:37:22.387Z,164.00
2018-11-02T11:38:22.395Z,160.00
2018-11-02T11:39:22.406Z,164.00
2018-11-02T11:40:22.417Z,168.00
2018-11-02T11:41:22.428Z,172.00
2018-11-02T11:42:22.438Z,172.00
2018-11-02T11:43:22.479Z,176.00
2018-11-02T11:44:22.463Z,184.00
2018-11-02T11:45:22.468Z,184.00
2018-11-02T11:46:22.480Z,180.00
2018-11-02T11:47:22.490Z,180.00
2018-11-02T11:48:22.523Z,176.00
2018-11-02T11:49:22.540Z,168.00
2018-11-02T11:50:22.521Z,160.00
2018-11-02T11:51:22.534Z,152.00
2018-11-02T11:52:22.543Z,144.00
2018-11-02T11:53:22.553Z,144.00
2018-11-02T11:54:22.634Z,148.00
2018-11-02T11:55:22.578Z,144.00
2018-11-02T11:56:22.588Z,140.00
2018-11-02T11:57:22.594Z,140.00
2018-11-02T11:58:22.605Z,140.00
2018-11-02T11:59:22.614Z,144.00
2018-11-02T12:00:22.625Z,148.00
2018-11-02T12:01:22.636Z,148.00
2018-11-02T12:02:22.741Z,156.00
2018-11-02T12:03:22.656Z,164.00
2018-11-02T12:04:22.696Z,176.00
2018-11-02T12:05:22.678Z,192.00
2018-11-02T12:06:22.688Z,200.00
2018-11-02T12:07:22.696Z,208.00
2018-11-02T12:08:22.710Z,220.00
2018-11-02T12:09:22.794Z,224.00
2018-11-02T12:10:22.790Z,220.00
2018-11-02T12:11:22.741Z,216.00
2018-11-02T12:12:22.750Z,220.00
2018-11-02T12:13:22.760Z,224.00
2018-11-02T12:14:22.768Z,236.00
2018-11-02T12:15:22.778Z,240.00
2018-11-02T12:16:22.792Z,236.00
2018-11-02T12:17:22.801Z,248.00
2018-11-02T12:18:22.810Z,252.00
2018-11-02T12:19:22.819Z,248.00
2018-11-02T12:20:22.830Z,256.00
2018-11-02T12:21:22.841Z,256.00
2018-11-02T12:22:22.848Z,252.00
2018-11-02T12:23:22.865Z,256.00
2018-11-02T12:24:22.871Z,264.00
2018-11-02T12:25:22.880Z,272.00
2018-11-02T12:26:22.893Z,280.00
2018-11-02T12:27:22.903Z,284.00
2018-11-02T12:28:22.969Z,280.00
2018-11-02T12:29:22.926Z,264.00
2018-11-02T12:30:22.932Z,256.00
2018-11-02T12:31:22.943Z,248.00
2018-11-02T12:32:22.953Z,248.00
2018-11-02T12:33:22.966Z,248.00
2018-11-02T12:34:22.974Z,244.00
2018-11-02T12:35:22.982Z,260.00
2018-11-02T12:36:23.000Z,272.00
2018-11-02T12:37:23.016Z,264.00
2018-11-02T12:38:23.011Z,244.00
2018-11-02T12:39:23.025Z,224.00
2018-11-02T12:40:23.088Z,204.00
2018-11-02T12:41:23.047Z,204.00
2018-11-02T12:42:23.054Z,196.00
2018-11-02T12:43:23.133Z,204.00
2018-11-02T12:44:23.079Z,216.00
2018-11-02T12:45:23.086Z,216.00
2018-11-02T12:46:23.095Z,212.00
2018-11-02T12:47:23.106Z,228.00
2018-11-02T12:48:23.165Z,252.00
2018-11-02T12:49:23.446Z,276.00
2018-11-02T12:50:23.259Z,292.00
2018-11-02T12:51:23.247Z,292.00
2018-11-02T12:52:23.159Z,284.00
2018-11-02T12:53:23.173Z,268.00
2018-11-02T12:54:23.177Z,264.00